Address 0xb6ca26b953a0c5bf5180efb57e7685668a4a6a18 9

Txn Hash Method
Block
From
To
Value [Txn Fee]
0x6447ae797ce44486f3c8b86c163053b17ecd11d91408b0e419487fe03dd1762a0x6080604029017332022-09-25 21:18:1271 days 3 hrs ago0xb6ca26b953a0c5bf5180efb57e7685668a4a6a18OUT Contract Creation0 DEV0.187089929
0x301caaf957f11dac33258dc280f930aa3751cac5cab033d6329d7a500b94317b0x6080604028972052022-09-25 1:53:3071 days 22 hrs ago0xb6ca26b953a0c5bf5180efb57e7685668a4a6a18OUT Contract Creation0 DEV0.187200077
0xc2edd11495eaf4bb77240c465f2320b47ec93b8792839974e5395adaedb23d35Transfer28679032022-09-19 23:21:5477 days 1 hr ago0x16f4898f47c085c41d7cc6b1dc72b91ea617dcbb IN 0xb6ca26b953a0c5bf5180efb57e7685668a4a6a1825 DEV0.0000525
0x1d8a3ad4f8d2e0dbb22958e25278aa519d7162338cc8e760e4a4626b6a0f994eSupport Satellit...28634462022-09-19 5:37:2477 days 18 hrs ago0xb6ca26b953a0c5bf5180efb57e7685668a4a6a18OUT0x8a82b653c37f468f43c3b7b33dd07adb0f7dc5460 DEV0.003728684
0x3871210796e49dfaac7600b7bb1e6b96652e33a6fc93b22f72fd395d71982030Support Satellit...28634442022-09-19 5:37:0077 days 18 hrs ago0xb6ca26b953a0c5bf5180efb57e7685668a4a6a18OUT0x8a82b653c37f468f43c3b7b33dd07adb0f7dc5460 DEV0.003728684
0x87041f0c294db2668dd8492fb6cac266b632392c353058ce1660df544f49e80eSet Secondary Fe...28634432022-09-19 5:36:4277 days 18 hrs ago0xb6ca26b953a0c5bf5180efb57e7685668a4a6a18OUT0x71a86567593c2ca476662eeeaa79b937932a2f610 DEV0.003278578
0xa51c1c220f42ff529dab22a4a49c34d6076ec307c520661e9b05fa283414641dSet Primary Feed28634422022-09-19 5:36:2477 days 18 hrs ago0xb6ca26b953a0c5bf5180efb57e7685668a4a6a18OUT0x71a86567593c2ca476662eeeaa79b937932a2f610 DEV0.003283
0x54babb57d8525a89cd8b3f558b9689b810c03c40165afa7b71096ad741a47d24Set Asset Feed28634412022-09-19 5:36:0077 days 18 hrs ago0xb6ca26b953a0c5bf5180efb57e7685668a4a6a18OUT0x65cc27ae59714d14ac7d9878d9150ca3f2760b770 DEV0.003260756
0x6c2657213ed3544be24072d298aae8b28b96465cbca385b6f61d73927c3e76d7Set Max Collater...28634392022-09-19 5:35:3077 days 18 hrs ago0xb6ca26b953a0c5bf5180efb57e7685668a4a6a18OUT0x8a82b653c37f468f43c3b7b33dd07adb0f7dc5460 DEV0.003564333
0xc94a377196547662b58592b852340c46cd7b35790e5fe39b0c5ac50d8d5bfe74Set Abs Max Ltv ...28634372022-09-19 5:35:0677 days 18 hrs ago0xb6ca26b953a0c5bf5180efb57e7685668a4a6a18OUT0xe5b8a37452501b381944199947f7cc939bc5da710 DEV0.003228529
0xb39ae56949dda3e310db5d4ae68ccf6bccfdbd83a2e5668641ba7bbc78333f7eSet Maintenance ...28634352022-09-19 5:34:4277 days 18 hrs ago0xb6ca26b953a0c5bf5180efb57e7685668a4a6a18OUT0xe5b8a37452501b381944199947f7cc939bc5da710 DEV0.003232214
0xc4e23910f095997fe85d6442cd8396072f857bd54e385950f2b503c4f2c81d43Support Market28634332022-09-19 5:34:0677 days 18 hrs ago0xb6ca26b953a0c5bf5180efb57e7685668a4a6a18OUT0x8a82b653c37f468f43c3b7b33dd07adb0f7dc5460 DEV0.008114772
0x412ca5affe64b2c6743b7bbfd9a209abbe3dccc9b9c90245283ea28b13fa333cSet Secondary Fe...28634312022-09-19 5:33:4277 days 18 hrs ago0xb6ca26b953a0c5bf5180efb57e7685668a4a6a18OUT0x71a86567593c2ca476662eeeaa79b937932a2f610 DEV0.003278578
0x22b31f59e804ebe52c8d616edd093f9083cfe923089eecc5ffee2b39ec58633aSet Primary Feed28634292022-09-19 5:33:1277 days 18 hrs ago0xb6ca26b953a0c5bf5180efb57e7685668a4a6a18OUT0x71a86567593c2ca476662eeeaa79b937932a2f610 DEV0.003283
0x5394c597666ad3f795add77dba162eec33aeb93ca8449461d7ec2bb71ac6742bSet Asset Feed28634272022-09-19 5:32:4877 days 18 hrs ago0xb6ca26b953a0c5bf5180efb57e7685668a4a6a18OUT0x65cc27ae59714d14ac7d9878d9150ca3f2760b770 DEV0.003260756
0x3dd7cb1362314a15b2dc13407ff1bb091fc6243eb0b0dbd60b1fbfd0fefc1d55Set Max Collater...28634252022-09-19 5:32:2477 days 18 hrs ago0xb6ca26b953a0c5bf5180efb57e7685668a4a6a18OUT0x8a82b653c37f468f43c3b7b33dd07adb0f7dc5460 DEV0.003564333
0xba47821e56127ee4889af2f95fe4b69aeb4e4c3a4096185c4938bb3d4a8db0cfSet Abs Max Ltv ...28634232022-09-19 5:32:0077 days 18 hrs ago0xb6ca26b953a0c5bf5180efb57e7685668a4a6a18OUT0xe5b8a37452501b381944199947f7cc939bc5da710 DEV0.003228529
0x8dde90d63c544281a0841716ba99f18fcac3d28b332bab9c0a64e50f1252c276Set Maintenance ...28634212022-09-19 5:31:3677 days 18 hrs ago0xb6ca26b953a0c5bf5180efb57e7685668a4a6a18OUT0xe5b8a37452501b381944199947f7cc939bc5da710 DEV0.003232214
0xae9572a32798d80e089d661da237b8b16e9657cc23d935249c5f6b309db5aa2cSupport Market28634192022-09-19 5:31:1277 days 18 hrs ago0xb6ca26b953a0c5bf5180efb57e7685668a4a6a18OUT0x8a82b653c37f468f43c3b7b33dd07adb0f7dc5460 DEV0.00811236
0x9dfb98fec44d8c9ac19806f2ed97b50cd62da3a235cde09e78e47d65397bbab1Set Secondary Fe...28634172022-09-19 5:30:4877 days 18 hrs ago0xb6ca26b953a0c5bf5180efb57e7685668a4a6a18OUT0x71a86567593c2ca476662eeeaa79b937932a2f610 DEV0.003278578
0xd6f6ff00ed9bd0c861f8e2b9efba862869ce58e9ca0d28960bff8f4a2a14d851Set Primary Feed28634162022-09-19 5:30:3077 days 18 hrs ago0xb6ca26b953a0c5bf5180efb57e7685668a4a6a18OUT0x71a86567593c2ca476662eeeaa79b937932a2f610 DEV0.003283
0x33d349074cdf6305d3c3a5915b065a19c94048b86de45f5661ec9391483d6b3fSet Asset Feed28634142022-09-19 5:30:0677 days 18 hrs ago0xb6ca26b953a0c5bf5180efb57e7685668a4a6a18OUT0x65cc27ae59714d14ac7d9878d9150ca3f2760b770 DEV0.003260756
0xeeb8a8474fe76d431f3ecd10baf4eb1193b66b4ae056776fe6480686e3c767b8Set Max Collater...28634132022-09-19 5:29:4277 days 18 hrs ago0xb6ca26b953a0c5bf5180efb57e7685668a4a6a18OUT0x8a82b653c37f468f43c3b7b33dd07adb0f7dc5460 DEV0.003564333
0x2727cba2fd9aa8a295e35bcb85c234f364c23b8f5925afdc260d989ff6addc09Set Abs Max Ltv ...28634122022-09-19 5:29:2477 days 18 hrs ago0xb6ca26b953a0c5bf5180efb57e7685668a4a6a18OUT0xe5b8a37452501b381944199947f7cc939bc5da710 DEV0.003228529
0xc7bfae357241a299422dd58441dd55f0937c6ce861185c6f2d3ae3d775d3b474Set Maintenance ...28634102022-09-19 5:29:0077 days 18 hrs ago0xb6ca26b953a0c5bf5180efb57e7685668a4a6a18OUT0xe5b8a37452501b381944199947f7cc939bc5da710 DEV0.003232214
[ Download CSV Export 
Parent Txn Hash Block From To Value
Loading

Contract Name:
0

Compiler Version
0

Optimization Enabled:
0

Other Settings:
-NA-
Block Transaction Gas Used Reward
Age Block Fee Address BC Fee Address Voting Power Jailed Incoming
Block Uncle Number Difficulty Gas Used Reward
Loading